createdAt,value
2019-03-03T00:01:43.861Z,10.50
2019-03-03T00:04:16.299Z,10.40
2019-03-03T00:06:48.620Z,10.40
2019-03-03T00:09:22.221Z,10.40
2019-03-03T00:11:55.320Z,10.40
2019-03-03T00:14:28.619Z,10.40
2019-03-03T00:17:00.519Z,10.40
2019-03-03T00:19:33.299Z,10.40
2019-03-03T00:22:06.323Z,10.40
2019-03-03T00:24:39.020Z,10.40
2019-03-03T00:27:11.581Z,10.40
2019-03-03T00:29:43.160Z,10.40
2019-03-03T00:32:16.381Z,10.40
2019-03-03T00:34:49.618Z,10.40
2019-03-03T00:37:29.797Z,10.40
2019-03-03T00:40:24.360Z,10.40
2019-03-03T00:43:02.800Z,10.40
2019-03-03T00:45:52.578Z,10.50
2019-03-03T00:48:34.839Z,10.50
2019-03-03T00:51:17.681Z,10.50
2019-03-03T00:54:12.279Z,10.50
2019-03-03T00:57:12.239Z,10.50
2019-03-03T01:00:09.119Z,10.50
2019-03-03T01:02:46.541Z,10.50
2019-03-03T01:05:32.039Z,10.60
2019-03-03T01:08:40.639Z,10.70
2019-03-03T01:11:22.659Z,10.60
2019-03-03T01:14:08.840Z,10.50
2019-03-03T01:17:08.525Z,10.50
2019-03-03T01:20:01.861Z,10.60
2019-03-03T01:22:40.840Z,10.50
2019-03-03T01:25:14.358Z,10.60
2019-03-03T01:27:46.960Z,10.60
2019-03-03T01:30:19.559Z,10.60
2019-03-03T01:32:51.980Z,10.60
2019-03-03T01:35:24.458Z,10.60
2019-03-03T01:37:57.880Z,10.60
2019-03-03T01:40:31.459Z,10.60
2019-03-03T01:43:03.438Z,10.70
2019-03-03T01:45:36.913Z,10.60
2019-03-03T01:48:10.079Z,10.60
2019-03-03T01:50:43.039Z,10.60
2019-03-03T01:53:15.319Z,10.60
2019-03-03T01:55:47.521Z,10.60
2019-03-03T01:58:20.260Z,10.60
2019-03-03T02:00:53.559Z,10.60
2019-03-03T02:03:26.019Z,10.60
2019-03-03T02:05:58.119Z,10.60
2019-03-03T02:08:31.340Z,10.70
2019-03-03T02:11:04.418Z,10.60
2019-03-03T02:13:39.439Z,10.60
2019-03-03T02:16:12.139Z,10.70
2019-03-03T02:18:45.200Z,10.70
2019-03-03T02:21:18.100Z,10.70
2019-03-03T02:23:49.883Z,10.70
2019-03-03T02:26:22.179Z,10.80
2019-03-03T02:28:54.559Z,10.70
2019-03-03T02:31:27.480Z,10.80
2019-03-03T02:34:00.680Z,10.80
2019-03-03T02:36:34.020Z,10.90
2019-03-03T02:39:06.559Z,10.90
2019-03-03T02:41:38.900Z,10.80
2019-03-03T02:44:11.506Z,10.80
2019-03-03T02:46:45.104Z,10.80
2019-03-03T02:49:17.401Z,10.80
2019-03-03T02:51:49.820Z,10.80
2019-03-03T02:54:22.501Z,10.80
2019-03-03T02:56:55.600Z,10.80
2019-03-03T02:59:27.982Z,10.70
2019-03-03T03:02:04.701Z,10.80
2019-03-03T03:04:38.042Z,10.80
2019-03-03T03:07:27.510Z,10.80
2019-03-03T03:10:21.114Z,10.80
2019-03-03T03:12:57.839Z,10.70
2019-03-03T03:15:49.781Z,10.70
2019-03-03T03:18:41.002Z,10.70
2019-03-03T03:21:43.821Z,10.70
2019-03-03T03:24:38.641Z,10.60
2019-03-03T03:27:28.421Z,10.60
2019-03-03T03:30:19.770Z,10.60
2019-03-03T03:32:58.645Z,10.60
2019-03-03T03:35:42.700Z,10.60
2019-03-03T03:38:33.981Z,10.60
2019-03-03T03:41:20.621Z,10.60
2019-03-03T03:44:08.845Z,10.50
2019-03-03T03:46:59.401Z,10.50
2019-03-03T03:49:53.080Z,10.40
2019-03-03T03:52:36.040Z,10.40
2019-03-03T03:55:26.719Z,10.40
2019-03-03T03:58:22.932Z,10.40
2019-03-03T04:01:13.860Z,10.40
2019-03-03T04:04:10.500Z,10.40
2019-03-03T04:07:13.799Z,10.40
2019-03-03T04:09:55.079Z,10.40
2019-03-03T04:13:01.227Z,10.30
2019-03-03T04:15:52.781Z,10.30
2019-03-03T04:18:34.522Z,10.40
2019-03-03T04:21:26.283Z,10.30
2019-03-03T04:24:18.839Z,10.30
2019-03-03T04:26:57.820Z,10.30
2019-03-03T04:29:41.380Z,10.40
2019-03-03T04:32:21.399Z,10.40
2019-03-03T04:34:59.399Z,10.30
2019-03-03T04:37:41.921Z,10.20
2019-03-03T04:40:33.480Z,10.20
2019-03-03T04:43:27.499Z,10.10
2019-03-03T04:46:08.279Z,10.10
2019-03-03T04:49:04.920Z,10.10
2019-03-03T04:52:04.659Z,10.10
2019-03-03T04:54:54.381Z,10.10
2019-03-03T04:57:37.720Z,10.00
2019-03-03T05:00:28.461Z,10.00
2019-03-03T05:03:18.239Z,9.90
2019-03-03T05:05:58.937Z,9.90
2019-03-03T05:08:49.725Z,9.90
2019-03-03T05:12:23.481Z,9.90
2019-03-03T05:14:57.939Z,9.80
2019-03-03T05:17:49.298Z,9.70
2019-03-03T05:20:21.679Z,9.70
2019-03-03T05:22:55.059Z,9.70
2019-03-03T05:25:27.599Z,9.70
2019-03-03T05:27:59.579Z,9.60
2019-03-03T05:30:31.919Z,9.60
2019-03-03T05:33:05.099Z,9.70
2019-03-03T05:35:37.261Z,9.70
2019-03-03T05:38:10.058Z,9.70
2019-03-03T05:40:42.319Z,9.50
2019-03-03T05:43:14.460Z,9.50
2019-03-03T05:45:47.199Z,9.40
2019-03-03T05:48:19.780Z,9.30
2019-03-03T05:50:51.798Z,9.30
2019-03-03T05:53:25.019Z,9.30
2019-03-03T05:55:57.741Z,9.30
2019-03-03T05:58:31.080Z,9.30
2019-03-03T06:01:03.220Z,9.30
2019-03-03T06:03:35.219Z,9.20
2019-03-03T06:06:07.799Z,9.20
2019-03-03T06:08:39.979Z,9.20
2019-03-03T06:11:13.140Z,9.20
2019-03-03T06:13:46.040Z,9.10
2019-03-03T06:16:18.221Z,9.10
2019-03-03T06:18:50.499Z,9.10
2019-03-03T06:21:23.800Z,9.10
2019-03-03T06:23:56.879Z,9.10
2019-03-03T06:26:29.480Z,9.10
2019-03-03T06:29:02.699Z,9.20
2019-03-03T06:31:36.059Z,9.30
2019-03-03T06:34:08.299Z,9.20
2019-03-03T06:36:41.040Z,9.10
2019-03-03T06:39:13.959Z,9.10
2019-03-03T06:41:46.541Z,9.10
2019-03-03T06:44:19.061Z,9.10
2019-03-03T06:46:52.099Z,9.10
2019-03-03T06:49:24.139Z,9.10
2019-03-03T06:51:56.779Z,9.10
2019-03-03T06:54:29.840Z,9.10
2019-03-03T06:57:02.309Z,9.10
2019-03-03T06:59:34.699Z,9.10
2019-03-03T07:02:07.603Z,9.10
2019-03-03T07:04:40.139Z,9.10
2019-03-03T07:07:12.619Z,9.10
2019-03-03T07:09:45.318Z,9.10
2019-03-03T07:12:18.919Z,9.20
2019-03-03T07:14:51.499Z,9.20
2019-03-03T07:17:23.882Z,9.20
2019-03-03T07:19:56.139Z,9.20
2019-03-03T07:22:27.785Z,9.20
2019-03-03T07:25:00.461Z,9.10
2019-03-03T07:27:33.362Z,9.10
2019-03-03T07:30:06.502Z,9.20
2019-03-03T07:32:45.179Z,9.30
2019-03-03T07:35:17.686Z,9.40
2019-03-03T07:37:51.100Z,9.50
2019-03-03T07:40:23.959Z,9.50
2019-03-03T07:42:56.949Z,9.60
2019-03-03T07:45:30.560Z,9.70
2019-03-03T07:48:03.978Z,9.80
2019-03-03T07:50:36.140Z,9.80
2019-03-03T07:53:08.459Z,9.90
2019-03-03T07:55:41.420Z,9.80
2019-03-03T07:58:14.520Z,9.90
2019-03-03T08:00:47.020Z,10.00
2019-03-03T08:03:19.799Z,10.10
2019-03-03T08:05:53.080Z,10.00
2019-03-03T08:08:26.866Z,10.10
2019-03-03T08:11:00.739Z,10.10
2019-03-03T08:13:34.220Z,10.20
2019-03-03T08:16:08.300Z,10.30
2019-03-03T08:18:41.040Z,10.40
2019-03-03T08:21:14.639Z,10.50
2019-03-03T08:23:48.202Z,10.50
2019-03-03T08:26:20.724Z,10.60
2019-03-03T08:28:53.479Z,10.60
2019-03-03T08:31:26.020Z,10.70
2019-03-03T08:33:59.279Z,10.70
2019-03-03T08:36:32.127Z,10.70
2019-03-03T08:39:04.559Z,10.70
2019-03-03T08:41:38.540Z,10.80
2019-03-03T08:44:17.579Z,10.80
2019-03-03T08:47:07.279Z,10.90
2019-03-03T08:49:56.760Z,11.00
2019-03-03T08:52:54.400Z,11.00
2019-03-03T08:55:45.708Z,11.00
2019-03-03T08:58:43.325Z,11.00
2019-03-03T09:01:32.581Z,11.00
2019-03-03T09:04:22.341Z,11.10
2019-03-03T09:07:19.439Z,11.20
2019-03-03T09:09:57.942Z,11.40
2019-03-03T09:12:39.480Z,11.50
2019-03-03T09:15:30.741Z,11.70
2019-03-03T09:18:22.970Z,11.70
2019-03-03T09:21:05.600Z,11.80
2019-03-03T09:24:02.999Z,11.80
2019-03-03T09:26:53.959Z,11.70
2019-03-03T09:29:45.580Z,11.70
2019-03-03T09:32:47.260Z,11.80
2019-03-03T09:35:36.739Z,11.90
2019-03-03T09:38:19.080Z,11.90
2019-03-03T09:41:09.304Z,11.90
2019-03-03T09:44:03.100Z,12.10
2019-03-03T09:47:12.040Z,12.10
2019-03-03T09:50:06.919Z,12.20
2019-03-03T09:52:51.499Z,12.10
2019-03-03T09:55:41.001Z,12.30
2019-03-03T09:58:30.459Z,12.50
2019-03-03T10:01:16.580Z,12.30
2019-03-03T10:04:01.219Z,12.20
2019-03-03T10:06:43.460Z,12.40
2019-03-03T10:09:33.739Z,12.50
2019-03-03T10:12:23.480Z,12.50
2019-03-03T10:15:20.899Z,12.40
2019-03-03T10:18:03.504Z,12.40
2019-03-03T10:20:56.767Z,12.50
2019-03-03T10:23:43.419Z,12.60
2019-03-03T10:26:25.459Z,12.80
2019-03-03T10:29:13.400Z,13.00
2019-03-03T10:32:03.383Z,13.10
2019-03-03T10:34:57.483Z,13.20
2019-03-03T10:37:41.322Z,13.30
2019-03-03T10:40:39.241Z,13.50
2019-03-03T10:43:22.602Z,13.60
2019-03-03T10:46:31.499Z,13.80
2019-03-03T10:49:13.779Z,14.00
2019-03-03T10:52:07.881Z,14.30
2019-03-03T10:54:45.602Z,14.50
2019-03-03T10:57:30.257Z,14.70
2019-03-03T11:00:26.059Z,15.00
2019-03-03T11:03:17.581Z,15.30
2019-03-03T11:06:27.059Z,15.50
2019-03-03T11:09:07.341Z,15.60
2019-03-03T11:11:57.336Z,15.60
2019-03-03T11:14:54.184Z,15.70
2019-03-03T11:17:52.719Z,15.70
2019-03-03T11:20:42.900Z,16.00
2019-03-03T11:23:48.939Z,16.40
2019-03-03T11:26:30.241Z,16.50
2019-03-03T11:29:23.301Z,16.70
2019-03-03T11:32:08.941Z,16.80
2019-03-03T11:34:58.399Z,16.80
2019-03-03T11:37:47.401Z,16.90
2019-03-03T11:40:41.739Z,17.00
2019-03-03T11:43:26.079Z,17.10
2019-03-03T11:46:09.620Z,17.20
2019-03-03T11:49:03.201Z,17.50
2019-03-03T11:51:53.481Z,17.50
2019-03-03T11:54:44.220Z,17.70
2019-03-03T11:57:35.520Z,17.40
2019-03-03T12:00:30.569Z,17.40
2019-03-03T12:03:21.843Z,17.60
2019-03-03T12:06:06.961Z,17.60
2019-03-03T12:09:16.685Z,17.80
2019-03-03T12:12:06.140Z,18.00
2019-03-03T12:14:49.461Z,18.20
2019-03-03T12:17:38.421Z,18.30
2019-03-03T12:20:21.481Z,18.30
2019-03-03T12:23:11.739Z,18.40
2019-03-03T12:26:05.639Z,18.60
2019-03-03T12:29:02.660Z,18.80
2019-03-03T12:31:43.221Z,19.00
2019-03-03T12:34:33.460Z,19.00
2019-03-03T12:37:43.221Z,19.10
2019-03-03T12:40:33.146Z,19.10
2019-03-03T12:43:18.482Z,19.00
2019-03-03T12:46:04.441Z,18.80
2019-03-03T12:49:05.163Z,18.70
2019-03-03T12:51:55.383Z,18.50
2019-03-03T12:54:42.339Z,18.30
2019-03-03T12:57:27.700Z,18.10
2019-03-03T13:00:21.641Z,18.00
2019-03-03T13:03:23.541Z,17.90
2019-03-03T13:06:05.321Z,17.80
2019-03-03T13:09:17.581Z,17.60
2019-03-03T13:11:58.124Z,17.40
2019-03-03T13:14:45.005Z,17.30
2019-03-03T13:17:29.321Z,17.30
2019-03-03T13:20:12.962Z,17.20
2019-03-03T13:22:57.318Z,17.10
2019-03-03T13:26:03.163Z,16.90
2019-03-03T13:29:02.601Z,16.80
2019-03-03T13:31:45.182Z,16.50
2019-03-03T13:34:34.920Z,16.30
2019-03-03T13:37:19.280Z,16.40
2019-03-03T13:39:59.028Z,16.40
2019-03-03T13:42:47.221Z,16.30
2019-03-03T13:45:20.661Z,16.20
2019-03-03T13:47:53.142Z,16.10
2019-03-03T13:50:25.940Z,16.20
2019-03-03T13:52:58.720Z,16.20
2019-03-03T13:55:31.040Z,16.10
2019-03-03T13:58:04.461Z,16.00
2019-03-03T14:00:37.861Z,16.10
2019-03-03T14:03:10.481Z,16.00
2019-03-03T14:05:43.080Z,16.00
2019-03-03T14:08:15.580Z,15.90
2019-03-03T14:10:47.839Z,16.00
2019-03-03T14:13:20.543Z,16.00
2019-03-03T14:15:53.906Z,15.90
2019-03-03T14:18:27.562Z,15.80
2019-03-03T14:20:59.681Z,15.70
2019-03-03T14:23:32.822Z,15.70
2019-03-03T14:26:06.082Z,15.70
2019-03-03T14:28:39.665Z,15.70
2019-03-03T14:31:12.840Z,15.60
2019-03-03T14:33:46.959Z,15.60
2019-03-03T14:36:19.780Z,15.60
2019-03-03T14:38:51.741Z,15.60
2019-03-03T14:41:24.782Z,15.60
2019-03-03T14:43:57.721Z,15.60
2019-03-03T14:46:30.603Z,15.60
2019-03-03T14:49:03.439Z,15.60
2019-03-03T14:51:36.780Z,15.70
2019-03-03T14:54:09.901Z,15.70
2019-03-03T14:56:42.793Z,15.70
2019-03-03T14:59:16.042Z,15.70
2019-03-03T15:01:49.200Z,15.70
2019-03-03T15:04:21.460Z,15.70
2019-03-03T15:06:55.100Z,15.70
2019-03-03T15:09:27.660Z,15.70
2019-03-03T15:12:00.302Z,15.80
2019-03-03T15:14:33.581Z,15.80
2019-03-03T15:17:06.920Z,15.80
2019-03-03T15:19:40.720Z,15.80
2019-03-03T15:22:13.643Z,15.90
2019-03-03T15:24:46.000Z,15.90
2019-03-03T15:27:19.101Z,15.90
2019-03-03T15:29:52.641Z,15.90
2019-03-03T15:32:25.163Z,15.90
2019-03-03T15:34:57.159Z,15.90
2019-03-03T15:37:29.721Z,15.90
2019-03-03T15:40:02.439Z,15.90
2019-03-03T15:42:34.901Z,15.80
2019-03-03T15:45:08.381Z,15.90
2019-03-03T15:47:41.821Z,15.90
2019-03-03T15:50:15.263Z,15.90
2019-03-03T15:52:47.702Z,15.90
2019-03-03T15:55:20.301Z,15.80
2019-03-03T15:57:53.260Z,15.80
2019-03-03T16:00:30.126Z,15.80
2019-03-03T16:03:02.844Z,15.80
2019-03-03T16:05:36.303Z,15.80
2019-03-03T16:08:09.059Z,15.80
2019-03-03T16:10:41.520Z,15.80
2019-03-03T16:13:14.359Z,15.80
2019-03-03T16:15:46.880Z,15.80
2019-03-03T16:18:19.762Z,15.70
2019-03-03T16:20:52.160Z,15.70
2019-03-03T16:23:24.779Z,15.70
2019-03-03T16:25:58.060Z,15.70
2019-03-03T16:28:30.419Z,15.70
2019-03-03T16:31:03.220Z,15.70
2019-03-03T16:33:35.981Z,15.70
2019-03-03T16:36:08.381Z,15.70
2019-03-03T16:38:41.499Z,15.60
2019-03-03T16:41:14.741Z,15.50
2019-03-03T16:43:47.599Z,15.40
2019-03-03T16:46:20.681Z,15.30
2019-03-03T16:48:53.241Z,15.10
2019-03-03T16:51:26.240Z,15.00
2019-03-03T16:53:58.779Z,14.90
2019-03-03T16:56:32.301Z,14.90
2019-03-03T16:59:05.581Z,14.80
2019-03-03T17:01:38.381Z,14.70
2019-03-03T17:04:11.501Z,14.70
2019-03-03T17:06:45.440Z,14.60
2019-03-03T17:09:18.401Z,14.50
2019-03-03T17:11:51.340Z,14.40
2019-03-03T17:14:24.659Z,14.40
2019-03-03T17:16:57.484Z,14.40
2019-03-03T17:19:30.500Z,14.30
2019-03-03T17:22:03.939Z,14.20
2019-03-03T17:24:37.286Z,14.20
2019-03-03T17:27:10.381Z,14.20
2019-03-03T17:29:43.980Z,14.20
2019-03-03T17:32:17.581Z,14.20
2019-03-03T17:34:50.681Z,14.20
2019-03-03T17:37:24.041Z,14.10
2019-03-03T17:39:56.659Z,14.10
2019-03-03T17:42:29.141Z,14.10
2019-03-03T17:45:02.860Z,14.00
2019-03-03T17:47:36.301Z,14.00
2019-03-03T17:50:10.540Z,14.00
2019-03-03T17:52:44.914Z,14.00
2019-03-03T17:55:18.541Z,13.90
2019-03-03T17:57:51.663Z,13.80
2019-03-03T18:00:27.500Z,13.80
2019-03-03T18:03:00.620Z,13.70
2019-03-03T18:05:33.199Z,13.60
2019-03-03T18:08:05.408Z,13.50
2019-03-03T18:10:37.920Z,13.50
2019-03-03T18:13:11.140Z,13.50
2019-03-03T18:15:43.982Z,13.50
2019-03-03T18:18:17.541Z,13.40
2019-03-03T18:20:51.243Z,13.40
2019-03-03T18:23:23.931Z,13.30
2019-03-03T18:25:56.146Z,13.30
2019-03-03T18:28:28.648Z,13.30
2019-03-03T18:31:01.951Z,13.20
2019-03-03T18:33:35.786Z,13.10
2019-03-03T18:36:08.367Z,13.00
2019-03-03T18:38:41.167Z,13.00
2019-03-03T18:41:14.048Z,13.00
2019-03-03T18:43:47.072Z,12.90
2019-03-03T18:46:20.651Z,12.90
2019-03-03T18:48:54.707Z,12.90
2019-03-03T18:51:27.968Z,12.80
2019-03-03T18:53:59.909Z,12.80
2019-03-03T18:56:31.828Z,12.80
2019-03-03T18:59:05.667Z,12.80
2019-03-03T19:01:38.008Z,12.70
2019-03-03T19:04:10.440Z,12.70
2019-03-03T19:06:43.317Z,12.70
2019-03-03T19:09:23.386Z,12.70
2019-03-03T19:11:55.593Z,12.70
2019-03-03T19:14:28.782Z,12.70
2019-03-03T19:17:00.888Z,12.70
2019-03-03T19:19:33.095Z,12.60
2019-03-03T19:22:05.727Z,12.60
2019-03-03T19:24:37.848Z,12.50
2019-03-03T19:27:10.328Z,12.40
2019-03-03T19:29:42.747Z,12.30
2019-03-03T19:32:15.528Z,12.20
2019-03-03T19:34:47.887Z,12.30
2019-03-03T19:37:20.507Z,12.20
2019-03-03T19:39:53.567Z,12.20
2019-03-03T19:42:26.527Z,12.10
2019-03-03T19:44:59.727Z,12.10
2019-03-03T19:47:32.327Z,12.10
2019-03-03T19:50:04.467Z,12.10
2019-03-03T19:52:36.987Z,12.10
2019-03-03T19:55:11.348Z,12.10
2019-03-03T19:57:44.174Z,12.00
2019-03-03T20:00:19.567Z,11.90
2019-03-03T20:02:51.608Z,11.90
2019-03-03T20:05:23.647Z,11.90
2019-03-03T20:07:56.308Z,11.80
2019-03-03T20:10:28.591Z,11.80
2019-03-03T20:13:00.767Z,11.70
2019-03-03T20:15:33.507Z,11.70
2019-03-03T20:18:06.568Z,11.60
2019-03-03T20:20:39.386Z,11.60
2019-03-03T20:23:11.630Z,11.70
2019-03-03T20:25:44.546Z,11.70
2019-03-03T20:28:17.587Z,11.70
2019-03-03T20:30:51.707Z,11.60
2019-03-03T20:33:24.788Z,11.60
2019-03-03T20:35:57.687Z,11.60
2019-03-03T20:38:29.869Z,11.50
2019-03-03T20:41:02.369Z,11.50
2019-03-03T20:43:35.668Z,11.60
2019-03-03T20:46:09.007Z,11.50
2019-03-03T20:48:41.310Z,11.50
2019-03-03T20:51:14.208Z,11.60
2019-03-03T20:53:47.027Z,11.70
2019-03-03T20:56:20.608Z,11.70
2019-03-03T20:58:54.089Z,11.80
2019-03-03T21:01:26.107Z,11.70
2019-03-03T21:03:58.629Z,11.70
2019-03-03T21:06:30.926Z,11.60
2019-03-03T21:09:03.530Z,11.60
2019-03-03T21:11:37.108Z,11.50
2019-03-03T21:14:09.908Z,11.50
2019-03-03T21:16:43.168Z,11.50
2019-03-03T21:19:15.808Z,11.40
2019-03-03T21:21:48.668Z,11.40
2019-03-03T21:24:21.087Z,11.50
2019-03-03T21:26:53.067Z,11.50
2019-03-03T21:29:25.006Z,11.40
2019-03-03T21:31:57.207Z,11.30
2019-03-03T21:34:30.546Z,11.30
2019-03-03T21:37:04.707Z,11.20
2019-03-03T21:39:37.747Z,11.10
2019-03-03T21:42:10.307Z,11.00
2019-03-03T21:44:43.008Z,11.00
2019-03-03T21:47:16.026Z,11.10
2019-03-03T21:49:49.067Z,11.00
2019-03-03T21:52:21.507Z,10.90
2019-03-03T21:54:53.706Z,10.90
2019-03-03T21:57:26.768Z,11.00
2019-03-03T21:59:58.907Z,11.10
2019-03-03T22:02:31.968Z,11.10
2019-03-03T22:05:05.392Z,11.10
2019-03-03T22:07:38.167Z,11.20
2019-03-03T22:10:10.488Z,11.40
2019-03-03T22:12:42.867Z,11.50
2019-03-03T22:15:15.346Z,11.80
2019-03-03T22:17:47.687Z,11.90
2019-03-03T22:20:20.447Z,12.10
2019-03-03T22:22:52.828Z,12.20
2019-03-03T22:25:26.106Z,12.20
2019-03-03T22:27:58.768Z,12.30
2019-03-03T22:30:31.329Z,12.40
2019-03-03T22:33:03.652Z,12.50
2019-03-03T22:35:37.448Z,12.60
2019-03-03T22:38:10.527Z,12.60
2019-03-03T22:40:43.707Z,12.70
2019-03-03T22:43:15.687Z,12.70
2019-03-03T22:45:48.587Z,12.70
2019-03-03T22:48:21.407Z,12.70
2019-03-03T22:50:53.847Z,12.70
2019-03-03T22:53:26.870Z,12.70
2019-03-03T22:55:59.469Z,12.70
2019-03-03T22:58:31.548Z,12.60
2019-03-03T23:01:22.270Z,12.60
2019-03-03T23:04:43.189Z,12.60
2019-03-03T23:07:52.388Z,12.50
2019-03-03T23:11:02.587Z,12.40
2019-03-03T23:13:58.968Z,12.30
2019-03-03T23:17:14.534Z,12.20
2019-03-03T23:20:22.728Z,12.20
2019-03-03T23:23:23.726Z,12.30
2019-03-03T23:25:56.887Z,12.20
2019-03-03T23:28:29.628Z,12.20
2019-03-03T23:31:02.728Z,12.20
2019-03-03T23:33:34.687Z,12.30
2019-03-03T23:36:07.408Z,12.20
2019-03-03T23:38:39.927Z,12.10
2019-03-03T23:41:12.609Z,12.20
2019-03-03T23:43:45.127Z,12.20
2019-03-03T23:46:18.187Z,12.20
2019-03-03T23:48:49.867Z,12.30
2019-03-03T23:51:22.608Z,12.30
2019-03-03T23:53:55.926Z,12.30
2019-03-03T23:56:28.267Z,12.30
2019-03-03T23:59:00.626Z,12.40
